Gibraltar, Gibraltar
Current Conditions -  °F | °C
As of 3:50 AM on Friday 19 Dec 2014 (Local Time) from LXGB Reporting Station
Clear Clear  
Wind Chill: 54°   Ceiling: Unl
Heat Index: 54°   Visibility: 5mi
Dew Point: 50°   Wind: 7mph
Humidity: 88%   Direction: 240°WSW
Pressure: 30.36"   Gusts: NA
Location:  36.14°N, 5.35°W
Report Text: LXGB 190150Z AUTO 24006KT 8000 // NCD 12/10 Q1028
Loading
Personal Weather Stations






























Interactive Weather Map New forecast layout! Learn more

10-Day Weather Forecast

Advertisements
Track Severe Weather on mobile